createdAt,value
2017-09-30T00:00:09.336Z,0.00
2017-09-30T00:01:30.099Z,0.00
2017-09-30T00:02:51.522Z,0.00
2017-09-30T00:04:12.458Z,0.00
2017-09-30T00:05:33.072Z,0.00
2017-09-30T00:06:53.559Z,0.00
2017-09-30T00:08:13.941Z,0.00
2017-09-30T00:09:34.173Z,0.00
2017-09-30T00:10:55.267Z,0.00
2017-09-30T00:12:15.765Z,0.00
2017-09-30T00:13:36.102Z,0.00
2017-09-30T00:14:57.203Z,0.00
2017-09-30T00:16:18.840Z,0.00
2017-09-30T00:17:39.173Z,0.00
2017-09-30T00:18:59.802Z,0.00
2017-09-30T00:20:20.148Z,0.00
2017-09-30T00:21:40.601Z,0.00
2017-09-30T00:23:01.107Z,0.00
2017-09-30T00:24:21.547Z,0.00
2017-09-30T00:25:41.778Z,0.00
2017-09-30T00:27:02.265Z,0.00
2017-09-30T00:28:22.416Z,0.00
2017-09-30T00:29:43.326Z,0.00
2017-09-30T00:31:03.628Z,0.00
2017-09-30T00:32:24.096Z,0.00
2017-09-30T00:33:45.035Z,0.00
2017-09-30T00:35:05.327Z,0.00
2017-09-30T00:36:25.847Z,0.00
2017-09-30T00:37:46.359Z,0.00
2017-09-30T00:39:06.818Z,0.00
2017-09-30T00:40:27.308Z,0.00
2017-09-30T00:41:47.645Z,0.00
2017-09-30T00:43:08.054Z,0.00
2017-09-30T00:44:28.362Z,0.00
2017-09-30T00:45:48.801Z,0.00
2017-09-30T00:47:09.157Z,0.00
2017-09-30T00:48:30.086Z,0.00
2017-09-30T00:49:50.446Z,0.00
2017-09-30T00:51:10.910Z,0.00
2017-09-30T00:52:31.378Z,0.00
2017-09-30T00:53:51.862Z,0.00
2017-09-30T00:55:12.236Z,0.00
2017-09-30T00:56:32.688Z,0.00
2017-09-30T00:57:54.605Z,0.00
2017-09-30T00:59:15.316Z,0.00
2017-09-30T01:00:35.804Z,0.00
2017-09-30T01:01:56.481Z,0.00
2017-09-30T01:03:17.093Z,0.00
2017-09-30T01:04:37.545Z,0.00
2017-09-30T01:05:58.441Z,0.00
2017-09-30T01:07:18.964Z,0.00
2017-09-30T01:08:39.740Z,0.00
2017-09-30T01:10:00.726Z,0.00
2017-09-30T01:11:21.140Z,0.00
2017-09-30T01:12:42.261Z,0.00
2017-09-30T01:14:02.774Z,0.00
2017-09-30T01:15:23.162Z,0.00
2017-09-30T01:16:43.764Z,0.00
2017-09-30T01:18:04.512Z,0.00
2017-09-30T01:19:24.887Z,0.00
2017-09-30T01:20:45.160Z,0.00
2017-09-30T01:22:05.757Z,0.00
2017-09-30T01:23:26.189Z,0.00
2017-09-30T01:24:46.717Z,0.00
2017-09-30T01:26:07.382Z,0.00
2017-09-30T01:27:28.474Z,0.00
2017-09-30T01:28:49.034Z,0.00
2017-09-30T01:30:09.570Z,0.00
2017-09-30T01:31:30.562Z,0.00
2017-09-30T01:32:51.383Z,0.00
2017-09-30T01:34:11.813Z,0.00
2017-09-30T01:35:32.200Z,0.00
2017-09-30T01:36:52.513Z,0.00
2017-09-30T01:38:12.977Z,0.00
2017-09-30T01:39:33.394Z,0.00
2017-09-30T01:40:53.827Z,0.00
2017-09-30T01:42:15.243Z,0.00
2017-09-30T01:43:35.621Z,0.00
2017-09-30T01:44:56.528Z,0.00
2017-09-30T01:46:17.086Z,0.00
2017-09-30T01:47:38.187Z,0.00
2017-09-30T01:48:59.045Z,0.00
2017-09-30T01:50:19.581Z,0.00
2017-09-30T01:51:39.899Z,0.00
2017-09-30T01:53:01.267Z,0.00
2017-09-30T01:54:22.369Z,0.00
2017-09-30T01:55:42.891Z,0.00
2017-09-30T01:57:04.172Z,0.00
2017-09-30T01:58:24.454Z,0.00
2017-09-30T01:59:45.110Z,0.00
2017-09-30T02:01:05.797Z,0.00
2017-09-30T02:02:26.330Z,0.00
2017-09-30T02:03:47.515Z,0.00
2017-09-30T02:05:08.156Z,0.00
2017-09-30T02:06:28.585Z,0.00
2017-09-30T02:07:49.217Z,0.00
2017-09-30T02:09:09.903Z,0.00
2017-09-30T02:10:30.560Z,0.00
2017-09-30T02:11:51.262Z,0.00
2017-09-30T02:13:11.804Z,0.00
2017-09-30T02:14:32.418Z,0.00
2017-09-30T02:15:53.019Z,0.00
2017-09-30T02:17:13.649Z,0.00
2017-09-30T02:18:34.069Z,0.00
2017-09-30T02:19:54.829Z,0.00
2017-09-30T02:21:15.403Z,0.00
2017-09-30T02:22:35.938Z,0.00
2017-09-30T02:23:56.723Z,0.00
2017-09-30T02:25:17.233Z,0.00
2017-09-30T02:26:37.637Z,0.00
2017-09-30T02:27:58.233Z,0.00
2017-09-30T02:29:19.307Z,0.00
2017-09-30T02:30:39.791Z,0.00
2017-09-30T02:32:01.120Z,0.00
2017-09-30T02:33:21.662Z,0.00
2017-09-30T02:34:42.104Z,0.00
2017-09-30T02:36:02.713Z,0.00
2017-09-30T02:37:23.569Z,0.00
2017-09-30T02:38:44.107Z,0.00
2017-09-30T02:40:04.601Z,0.00
2017-09-30T02:41:25.095Z,0.00
2017-09-30T02:42:46.489Z,0.00
2017-09-30T02:44:06.941Z,0.00
2017-09-30T02:45:27.486Z,0.00
2017-09-30T02:46:47.845Z,0.00
2017-09-30T02:48:08.470Z,0.00
2017-09-30T02:49:29.571Z,0.00
2017-09-30T02:50:50.152Z,0.00
2017-09-30T02:52:10.905Z,0.00
2017-09-30T02:53:31.661Z,0.00
2017-09-30T02:54:52.207Z,0.00
2017-09-30T02:56:12.789Z,0.00
2017-09-30T02:57:33.180Z,0.00
2017-09-30T02:58:53.716Z,0.00
2017-09-30T03:00:14.222Z,0.00
2017-09-30T03:01:34.854Z,0.00
2017-09-30T03:02:55.523Z,0.00
2017-09-30T03:04:16.155Z,0.00
2017-09-30T03:05:36.744Z,0.00
2017-09-30T03:06:57.437Z,0.00
2017-09-30T03:08:18.222Z,0.00
2017-09-30T03:09:38.462Z,0.00
2017-09-30T03:10:59.072Z,0.00
2017-09-30T03:12:20.464Z,0.00
2017-09-30T03:13:41.404Z,0.00
2017-09-30T03:15:01.968Z,0.00
2017-09-30T03:16:22.521Z,0.00
2017-09-30T03:17:42.791Z,0.00
2017-09-30T03:19:03.268Z,0.00
2017-09-30T03:20:24.387Z,0.00
2017-09-30T03:21:44.898Z,0.00
2017-09-30T03:23:05.477Z,0.00
2017-09-30T03:24:25.981Z,0.00
2017-09-30T03:25:46.597Z,0.00
2017-09-30T03:27:07.173Z,0.00
2017-09-30T03:28:27.594Z,0.00
2017-09-30T03:29:48.008Z,0.00
2017-09-30T03:36:10.717Z,0.00
2017-09-30T03:37:31.217Z,0.00
2017-09-30T03:38:52.148Z,0.00
2017-09-30T03:40:12.674Z,0.00
2017-09-30T03:41:33.395Z,0.00
2017-09-30T03:42:54.328Z,0.00
2017-09-30T03:44:15.141Z,0.00
2017-09-30T03:45:35.568Z,0.00
2017-09-30T03:46:56.264Z,0.00
2017-09-30T03:48:17.350Z,0.00
2017-09-30T03:49:37.859Z,0.00
2017-09-30T03:50:58.448Z,0.00
2017-09-30T03:52:19.180Z,0.00
2017-09-30T03:53:39.789Z,0.00
2017-09-30T03:55:00.417Z,0.00
2017-09-30T03:56:20.993Z,0.00
2017-09-30T03:57:41.564Z,0.00
2017-09-30T03:59:02.973Z,0.00
2017-09-30T04:00:23.297Z,0.00
2017-09-30T04:01:43.826Z,0.00
2017-09-30T04:03:04.726Z,0.00
2017-09-30T04:04:25.358Z,0.00
2017-09-30T04:05:45.852Z,0.00
2017-09-30T04:07:06.254Z,0.00
2017-09-30T04:08:26.865Z,0.00
2017-09-30T04:09:47.177Z,0.00
2017-09-30T04:11:07.680Z,0.00
2017-09-30T04:12:28.119Z,0.00
2017-09-30T04:13:48.683Z,0.00
2017-09-30T04:15:09.187Z,0.00
2017-09-30T04:16:29.761Z,0.00
2017-09-30T04:17:50.671Z,0.00
2017-09-30T04:19:11.257Z,0.00
2017-09-30T04:20:32.490Z,0.00
2017-09-30T04:21:53.128Z,0.00
2017-09-30T04:23:13.649Z,0.00
2017-09-30T04:24:34.636Z,0.00
2017-09-30T04:25:55.237Z,0.00
2017-09-30T04:27:16.069Z,0.00
2017-09-30T04:28:36.601Z,0.00
2017-09-30T04:29:57.156Z,0.00
2017-09-30T04:31:18.191Z,0.00
2017-09-30T04:32:38.516Z,0.00
2017-09-30T04:33:59.285Z,0.00
2017-09-30T04:35:20.040Z,0.00
2017-09-30T04:36:40.426Z,0.00
2017-09-30T04:38:00.958Z,0.00
2017-09-30T04:39:21.416Z,0.00
2017-09-30T04:40:41.902Z,0.00
2017-09-30T04:42:02.884Z,0.00
2017-09-30T04:43:23.284Z,0.00
2017-09-30T04:44:43.631Z,0.00
2017-09-30T04:46:04.142Z,0.00
2017-09-30T04:47:24.788Z,0.00
2017-09-30T04:48:45.340Z,0.00
2017-09-30T04:50:06.611Z,0.00
2017-09-30T04:51:26.996Z,1.00
2017-09-30T04:52:47.539Z,1.00
2017-09-30T04:54:08.573Z,1.00
2017-09-30T04:55:28.977Z,0.00
2017-09-30T04:56:49.487Z,1.00
2017-09-30T04:58:11.501Z,1.00
2017-09-30T04:59:31.956Z,2.00
2017-09-30T05:00:52.443Z,2.00
2017-09-30T05:02:13.024Z,4.00
2017-09-30T05:03:33.444Z,6.00
2017-09-30T05:04:53.778Z,8.00
2017-09-30T05:06:14.781Z,11.00
2017-09-30T05:07:35.354Z,15.00
2017-09-30T05:08:56.076Z,20.00
2017-09-30T05:10:16.489Z,25.00
2017-09-30T05:11:36.881Z,31.00
2017-09-30T05:12:57.605Z,40.00
2017-09-30T05:14:18.335Z,50.00
2017-09-30T05:15:38.797Z,62.00
2017-09-30T05:16:59.275Z,74.00
2017-09-30T05:18:19.682Z,86.00
2017-09-30T05:19:40.806Z,99.00
2017-09-30T05:21:01.591Z,109.00
2017-09-30T05:22:22.178Z,120.00
2017-09-30T05:23:42.656Z,140.00
2017-09-30T05:25:03.413Z,155.00
2017-09-30T05:26:24.061Z,169.00
2017-09-30T05:27:44.649Z,180.00
2017-09-30T05:29:05.026Z,184.00
2017-09-30T05:30:26.315Z,204.00
2017-09-30T05:31:46.601Z,237.00
2017-09-30T05:33:07.259Z,278.00
2017-09-30T05:34:28.389Z,370.00
2017-09-30T05:35:49.020Z,466.00
2017-09-30T05:37:09.690Z,536.00
2017-09-30T05:38:30.977Z,550.00
2017-09-30T05:39:51.743Z,561.00
2017-09-30T05:41:12.567Z,645.00
2017-09-30T05:42:33.204Z,747.00
2017-09-30T05:43:53.900Z,963.00
2017-09-30T05:45:15.482Z,1108.00
2017-09-30T05:46:36.081Z,1295.00
2017-09-30T05:47:56.862Z,1386.00
2017-09-30T05:49:17.532Z,1391.00
2017-09-30T05:50:38.055Z,1320.00
2017-09-30T05:51:58.866Z,1175.00
2017-09-30T05:53:19.481Z,1083.00
2017-09-30T05:54:40.353Z,1005.00
2017-09-30T05:56:01.151Z,992.00
2017-09-30T05:57:22.326Z,1028.00
2017-09-30T05:58:42.931Z,1103.00
2017-09-30T06:00:03.452Z,1201.00
2017-09-30T06:01:25.163Z,1276.00
2017-09-30T06:02:45.734Z,1333.00
2017-09-30T06:04:06.229Z,1387.00
2017-09-30T06:05:27.010Z,1459.00
2017-09-30T06:06:47.632Z,1611.00
2017-09-30T06:08:08.618Z,1816.00
2017-09-30T06:09:29.176Z,2124.00
2017-09-30T06:10:49.753Z,2474.00
2017-09-30T06:12:11.347Z,2853.00
2017-09-30T06:13:31.944Z,3089.00
2017-09-30T06:14:52.655Z,3266.00
2017-09-30T06:16:13.284Z,3440.00
2017-09-30T06:17:34.053Z,3712.00
2017-09-30T06:18:54.847Z,3972.00
2017-09-30T06:20:15.660Z,4328.00
2017-09-30T06:21:36.299Z,4542.00
2017-09-30T06:22:57.196Z,4663.00
2017-09-30T06:24:18.185Z,4760.00
2017-09-30T06:25:39.425Z,4882.00
2017-09-30T06:27:00.092Z,4992.00
2017-09-30T06:28:21.403Z,5056.00
2017-09-30T06:29:42.097Z,5211.00
2017-09-30T06:31:02.866Z,5337.00
2017-09-30T06:32:23.396Z,5500.00
2017-09-30T06:33:45.147Z,5593.00
2017-09-30T06:35:05.868Z,5677.00
2017-09-30T06:36:26.393Z,5813.00
2017-09-30T06:37:46.961Z,5937.00
2017-09-30T06:39:07.608Z,6052.00
2017-09-30T06:40:28.316Z,6076.00
2017-09-30T06:41:48.922Z,6072.00
2017-09-30T06:43:09.633Z,6180.00
2017-09-30T06:44:30.165Z,6325.00
2017-09-30T06:45:51.021Z,6534.00
2017-09-30T06:47:11.611Z,6779.00
2017-09-30T06:48:32.341Z,7088.00
2017-09-30T06:49:53.332Z,7438.00
2017-09-30T06:51:13.895Z,7662.00
2017-09-30T06:52:36.098Z,7996.00
2017-09-30T06:53:57.049Z,8215.00
2017-09-30T06:55:17.722Z,8369.00
2017-09-30T06:56:38.876Z,8576.00
2017-09-30T06:57:59.526Z,8731.00
2017-09-30T06:59:20.426Z,8867.00
2017-09-30T07:00:42.312Z,9017.00
2017-09-30T07:02:03.177Z,9191.00
2017-09-30T07:03:23.642Z,9308.00
2017-09-30T07:04:44.209Z,9458.00
2017-09-30T07:06:05.144Z,9695.00
2017-09-30T07:07:25.866Z,9964.00
2017-09-30T07:08:46.528Z,10290.00
2017-09-30T07:10:07.241Z,10549.00
2017-09-30T07:11:28.093Z,10864.00
2017-09-30T07:12:49.048Z,11051.00
2017-09-30T07:14:10.581Z,11008.00
2017-09-30T07:15:31.209Z,10838.00
2017-09-30T07:16:52.347Z,10906.00
2017-09-30T07:18:13.116Z,10840.00
2017-09-30T07:19:33.779Z,10852.00
2017-09-30T07:20:54.525Z,10762.00
2017-09-30T07:22:15.473Z,10841.00
2017-09-30T07:23:36.290Z,10849.00
2017-09-30T07:24:57.063Z,10654.00
2017-09-30T07:26:17.764Z,10833.00
2017-09-30T07:27:38.441Z,10324.00
2017-09-30T07:28:59.274Z,9839.00
2017-09-30T07:30:19.896Z,9540.00
2017-09-30T07:31:40.639Z,9582.00
2017-09-30T07:33:02.944Z,9425.00
2017-09-30T07:34:23.480Z,10197.00
2017-09-30T07:35:44.147Z,10551.00
2017-09-30T07:37:05.299Z,11697.00
2017-09-30T07:38:26.077Z,12769.00
2017-09-30T07:39:46.837Z,13620.00
2017-09-30T07:41:08.167Z,16081.00
2017-09-30T07:42:28.913Z,16864.00
2017-09-30T07:43:49.595Z,18696.00
2017-09-30T07:45:10.582Z,17072.00
2017-09-30T07:46:31.261Z,15477.00
2017-09-30T07:47:53.304Z,12626.00
2017-09-30T07:49:14.213Z,12697.00
2017-09-30T07:50:35.213Z,13227.00
2017-09-30T07:51:57.054Z,15722.00
2017-09-30T07:53:18.083Z,15911.00
2017-09-30T07:54:38.765Z,16418.00
2017-09-30T07:56:00.085Z,19256.00
2017-09-30T07:57:20.899Z,17192.00
2017-09-30T07:58:41.811Z,16813.00
2017-09-30T08:00:03.502Z,17200.00
2017-09-30T08:01:24.140Z,16496.00
2017-09-30T08:02:44.860Z,15623.00
2017-09-30T08:04:05.490Z,14528.00
2017-09-30T08:05:26.418Z,12647.00
2017-09-30T08:06:47.318Z,12377.00
2017-09-30T08:08:07.958Z,12070.00
2017-09-30T08:15:58.676Z,11919.00
2017-09-30T08:17:19.457Z,11519.00
2017-09-30T08:18:40.044Z,11428.00
2017-09-30T08:20:02.444Z,10693.00
2017-09-30T08:21:23.339Z,10747.00
2017-09-30T08:22:44.037Z,10099.00
2017-09-30T08:24:04.931Z,10792.00
2017-09-30T08:25:26.279Z,11439.00
2017-09-30T08:26:47.000Z,12124.00
2017-09-30T08:28:08.242Z,11838.00
2017-09-30T08:29:29.025Z,12524.00
2017-09-30T08:30:49.934Z,13708.00
2017-09-30T08:32:10.867Z,15124.00
2017-09-30T08:33:32.423Z,15832.00
2017-09-30T08:34:53.294Z,15992.00
2017-09-30T08:36:14.130Z,16182.00
2017-09-30T08:37:35.823Z,17272.00
2017-09-30T08:38:56.554Z,17776.00
2017-09-30T08:40:18.472Z,17192.00
2017-09-30T08:41:39.069Z,17208.00
2017-09-30T08:43:05.406Z,15822.00
2017-09-30T08:44:26.498Z,16049.00
2017-09-30T08:45:47.190Z,16765.00
2017-09-30T08:47:07.940Z,17056.00
2017-09-30T08:48:28.888Z,15017.00
2017-09-30T08:49:49.842Z,11945.00
2017-09-30T08:51:10.458Z,10611.00
2017-09-30T08:52:31.205Z,10133.00
2017-09-30T08:53:52.220Z,10700.00
2017-09-30T08:55:12.980Z,10109.00
2017-09-30T08:56:34.728Z,8472.00
2017-09-30T08:57:56.079Z,6931.00
2017-09-30T08:59:16.736Z,6689.00
2017-09-30T09:00:37.416Z,6978.00
2017-09-30T09:01:58.361Z,10009.00
2017-09-30T09:03:19.271Z,10330.00
2017-09-30T09:04:40.413Z,7974.00
2017-09-30T09:06:01.922Z,9621.00
2017-09-30T09:07:23.485Z,8694.00
2017-09-30T09:08:46.704Z,8177.00
2017-09-30T09:10:07.425Z,9083.00
2017-09-30T09:11:29.090Z,8866.00
2017-09-30T09:12:50.733Z,12353.00
2017-09-30T09:14:12.276Z,12530.00
2017-09-30T09:15:33.606Z,11327.00
2017-09-30T09:16:56.438Z,10449.00
2017-09-30T09:18:19.355Z,10400.00
2017-09-30T09:19:40.195Z,10232.00
2017-09-30T09:21:14.433Z,10442.00
2017-09-30T09:22:36.543Z,9210.00
2017-09-30T09:23:59.170Z,8749.00
2017-09-30T09:25:20.659Z,8081.00
2017-09-30T09:26:41.934Z,7883.00
2017-09-30T09:28:02.719Z,8239.00
2017-09-30T09:29:24.979Z,8068.00
2017-09-30T09:30:50.637Z,8022.00
2017-09-30T09:32:13.042Z,7959.00
2017-09-30T09:33:36.147Z,7703.00
2017-09-30T09:34:59.941Z,7762.00
2017-09-30T09:36:23.134Z,8374.00
2017-09-30T09:37:44.416Z,8865.00
2017-09-30T09:39:06.231Z,9381.00
2017-09-30T09:40:28.594Z,9541.00
2017-09-30T09:41:50.172Z,8229.00
2017-09-30T09:43:12.347Z,7061.00
2017-09-30T09:44:34.452Z,6821.00
2017-09-30T09:45:59.797Z,5965.00
2017-09-30T09:47:21.473Z,5963.00
2017-09-30T09:48:43.723Z,5627.00
2017-09-30T09:50:05.273Z,5385.00
2017-09-30T09:51:27.831Z,5221.00
2017-09-30T09:52:48.875Z,5239.00
2017-09-30T09:54:11.205Z,5122.00
2017-09-30T09:55:34.638Z,5149.00
2017-09-30T09:56:56.856Z,5730.00
2017-09-30T09:58:18.450Z,6067.00
2017-09-30T09:59:39.860Z,5932.00
2017-09-30T10:01:06.532Z,6175.00
2017-09-30T10:02:27.862Z,6468.00
2017-09-30T10:03:49.257Z,6377.00
2017-09-30T10:05:13.505Z,6182.00
2017-09-30T10:06:44.294Z,6098.00
2017-09-30T10:08:06.045Z,5504.00
2017-09-30T10:09:27.089Z,4961.00
2017-09-30T10:10:53.435Z,4854.00
2017-09-30T10:12:15.722Z,4921.00
2017-09-30T10:13:36.474Z,5005.00
2017-09-30T10:14:57.839Z,4861.00
2017-09-30T10:16:18.977Z,4705.00
2017-09-30T10:17:39.683Z,4651.00
2017-09-30T10:19:00.773Z,4305.00
2017-09-30T10:20:22.885Z,4527.00
2017-09-30T10:21:43.526Z,5047.00
2017-09-30T10:23:04.337Z,6144.00
2017-09-30T10:24:25.055Z,7012.00
2017-09-30T10:25:45.607Z,7340.00
2017-09-30T10:27:08.203Z,6973.00
2017-09-30T10:28:29.004Z,6557.00
2017-09-30T10:29:51.402Z,6823.00
2017-09-30T10:31:12.135Z,7152.00
2017-09-30T10:32:33.564Z,7159.00
2017-09-30T10:33:54.532Z,7288.00
2017-09-30T10:35:16.315Z,7527.00
2017-09-30T10:36:37.656Z,7769.00
2017-09-30T10:37:58.883Z,8493.00
2017-09-30T10:39:19.655Z,9648.00
2017-09-30T10:40:42.287Z,10968.00
2017-09-30T10:42:03.732Z,11764.00
2017-09-30T10:43:24.872Z,12574.00
2017-09-30T10:44:45.871Z,13171.00
2017-09-30T10:46:07.023Z,13972.00
2017-09-30T10:47:28.609Z,14503.00
2017-09-30T10:48:50.782Z,15351.00
2017-09-30T10:50:12.796Z,16024.00
2017-09-30T10:51:34.790Z,16212.00
2017-09-30T10:52:56.009Z,15620.00
2017-09-30T10:54:17.106Z,14540.00
2017-09-30T10:55:42.115Z,13334.00
2017-09-30T10:57:02.888Z,12451.00
2017-09-30T10:58:24.700Z,11783.00
2017-09-30T10:59:46.823Z,11136.00
2017-09-30T11:01:08.142Z,10549.00
2017-09-30T11:02:29.816Z,10262.00
2017-09-30T11:03:51.769Z,10521.00
2017-09-30T11:05:13.409Z,11437.00
2017-09-30T11:06:35.356Z,12723.00
2017-09-30T11:07:56.972Z,14400.00
2017-09-30T11:09:20.782Z,15890.00
2017-09-30T11:10:48.405Z,17952.00
2017-09-30T11:12:09.711Z,19784.00
2017-09-30T11:13:34.065Z,19608.00
2017-09-30T11:14:55.144Z,18152.00
2017-09-30T11:16:17.175Z,16481.00
2017-09-30T11:17:42.961Z,15313.00
2017-09-30T11:19:06.373Z,15011.00
2017-09-30T11:20:29.511Z,13829.00
2017-09-30T11:21:51.876Z,13543.00
2017-09-30T11:23:13.637Z,13493.00
2017-09-30T11:24:34.406Z,14903.00
2017-09-30T11:25:55.450Z,16440.00
2017-09-30T11:27:16.618Z,18400.00
2017-09-30T11:28:38.312Z,20328.00
2017-09-30T11:29:59.290Z,21440.00
2017-09-30T11:31:20.149Z,20752.00
2017-09-30T11:32:40.985Z,21312.00
2017-09-30T11:34:02.096Z,19728.00
2017-09-30T11:35:22.814Z,19400.00
2017-09-30T11:36:43.589Z,19192.00
2017-09-30T11:38:04.454Z,18904.00
2017-09-30T11:39:25.396Z,17696.00
2017-09-30T11:40:46.604Z,17408.00
2017-09-30T11:42:08.487Z,19448.00
2017-09-30T11:43:32.526Z,19528.00
2017-09-30T11:44:53.750Z,22232.00
2017-09-30T11:46:14.556Z,22912.00
2017-09-30T11:47:35.335Z,23032.00
2017-09-30T11:48:57.179Z,22712.00
2017-09-30T11:55:56.292Z,20288.00
2017-09-30T11:57:16.984Z,18104.00
2017-09-30T11:58:37.820Z,17111.00
2017-09-30T11:59:58.548Z,16383.00
2017-09-30T12:01:20.395Z,15898.00
2017-09-30T12:02:41.874Z,15570.00
2017-09-30T12:04:02.941Z,15850.00
2017-09-30T12:05:24.487Z,16577.00
2017-09-30T12:06:45.420Z,16987.00
2017-09-30T12:08:06.659Z,16868.00
2017-09-30T12:09:28.433Z,16938.00
2017-09-30T12:10:50.729Z,15865.00
2017-09-30T12:12:11.855Z,16984.00
2017-09-30T12:13:33.697Z,19880.00
2017-09-30T12:14:54.728Z,20104.00
2017-09-30T12:16:15.811Z,19736.00
2017-09-30T12:17:37.907Z,20088.00
2017-09-30T12:18:59.188Z,19448.00
2017-09-30T12:20:20.844Z,17094.00
2017-09-30T12:21:41.997Z,15299.00
2017-09-30T12:23:03.355Z,14060.00
2017-09-30T12:24:24.236Z,13336.00
2017-09-30T12:25:45.065Z,13288.00
2017-09-30T12:27:06.254Z,13777.00
2017-09-30T12:28:29.686Z,14386.00
2017-09-30T12:29:50.730Z,14611.00
2017-09-30T12:31:12.119Z,13318.00
2017-09-30T12:32:33.362Z,11010.00
2017-09-30T12:33:54.653Z,9135.00
2017-09-30T12:35:16.013Z,8078.00
2017-09-30T12:36:36.991Z,7419.00
2017-09-30T12:37:57.775Z,6999.00
2017-09-30T12:39:18.592Z,7012.00
2017-09-30T12:40:39.453Z,7322.00
2017-09-30T12:42:00.376Z,6922.00
2017-09-30T12:43:22.685Z,7058.00
2017-09-30T12:44:43.975Z,7216.00
2017-09-30T12:46:04.780Z,7438.00
2017-09-30T12:47:25.520Z,7982.00
2017-09-30T12:48:46.251Z,9723.00
2017-09-30T12:50:07.319Z,9973.00
2017-09-30T12:51:28.115Z,9941.00
2017-09-30T12:52:49.937Z,10657.00
2017-09-30T12:54:11.288Z,10745.00
2017-09-30T12:55:33.050Z,9840.00
2017-09-30T12:56:53.853Z,9652.00
2017-09-30T12:58:14.562Z,10117.00
2017-09-30T12:59:35.583Z,9404.00
2017-09-30T13:00:56.839Z,8755.00
2017-09-30T13:02:19.084Z,8268.00
2017-09-30T13:03:39.846Z,8619.00
2017-09-30T13:05:01.565Z,8636.00
2017-09-30T13:06:22.471Z,7687.00
2017-09-30T13:07:43.256Z,7125.00
2017-09-30T13:09:04.340Z,7355.00
2017-09-30T13:10:25.092Z,7480.00
2017-09-30T13:11:46.815Z,7578.00
2017-09-30T13:13:07.571Z,7670.00
2017-09-30T13:14:28.813Z,7811.00
2017-09-30T13:15:50.248Z,7439.00
2017-09-30T13:17:11.136Z,6732.00
2017-09-30T13:18:31.856Z,6286.00
2017-09-30T13:19:52.977Z,6239.00
2017-09-30T13:21:13.730Z,6698.00
2017-09-30T13:22:36.302Z,6982.00
2017-09-30T13:23:57.074Z,6092.00
2017-09-30T13:25:17.680Z,5743.00
2017-09-30T13:26:38.409Z,5717.00
2017-09-30T13:37:16.623Z,8487.00
2017-09-30T13:38:37.440Z,8533.00
2017-09-30T13:39:58.320Z,8001.00
2017-09-30T13:41:19.054Z,7303.00
2017-09-30T13:42:39.989Z,6418.00
2017-09-30T13:44:00.733Z,5369.00
2017-09-30T13:45:22.072Z,4575.00
2017-09-30T13:46:42.760Z,4188.00
2017-09-30T13:48:04.576Z,4402.00
2017-09-30T13:49:26.445Z,3708.00
2017-09-30T13:50:46.991Z,3247.00
2017-09-30T13:52:07.693Z,3232.00
2017-09-30T13:53:29.678Z,3568.00
2017-09-30T13:54:50.469Z,4014.00
2017-09-30T13:56:11.938Z,3179.00
2017-09-30T13:57:32.580Z,2148.00
2017-09-30T13:58:54.450Z,1174.00
2017-09-30T14:00:14.944Z,1297.00
2017-09-30T14:01:36.352Z,1498.00
2017-09-30T14:02:57.339Z,1672.00
2017-09-30T14:04:18.143Z,2175.00
2017-09-30T14:05:39.274Z,2711.00
2017-09-30T14:06:59.975Z,2873.00
2017-09-30T14:08:20.562Z,2521.00
2017-09-30T14:09:41.479Z,2055.00
2017-09-30T14:11:02.333Z,1375.00
2017-09-30T14:12:24.114Z,1493.00
2017-09-30T14:13:45.141Z,1986.00
2017-09-30T14:15:06.373Z,1867.00
2017-09-30T14:16:27.141Z,1945.00
2017-09-30T14:17:48.675Z,2033.00
2017-09-30T14:19:09.664Z,2376.00
2017-09-30T14:20:31.256Z,2584.00
2017-09-30T14:21:52.470Z,2592.00
2017-09-30T14:23:14.045Z,2351.00
2017-09-30T14:24:34.934Z,2019.00
2017-09-30T14:25:56.073Z,2103.00
2017-09-30T14:27:17.629Z,2347.00
2017-09-30T14:28:38.385Z,2328.00
2017-09-30T14:35:22.595Z,1060.00
2017-09-30T14:36:43.304Z,1243.00
2017-09-30T14:38:05.238Z,1457.00
2017-09-30T14:39:26.121Z,1904.00
2017-09-30T14:40:46.986Z,2239.00
2017-09-30T14:42:07.624Z,2613.00
2017-09-30T14:43:28.319Z,2698.00
2017-09-30T14:44:49.927Z,1873.00
2017-09-30T14:46:10.542Z,1374.00
2017-09-30T14:47:31.241Z,1696.00
2017-09-30T14:48:52.531Z,1856.00
2017-09-30T14:50:13.976Z,2358.00
2017-09-30T14:51:34.642Z,2604.00
2017-09-30T14:52:55.319Z,1943.00
2017-09-30T14:54:16.155Z,2213.00
2017-09-30T14:55:36.684Z,1979.00
2017-09-30T14:56:57.814Z,1985.00
2017-09-30T14:58:18.475Z,2126.00
2017-09-30T14:59:39.240Z,2302.00
2017-09-30T15:01:00.663Z,2605.00
2017-09-30T15:02:21.429Z,2451.00
2017-09-30T15:03:42.741Z,1862.00
2017-09-30T15:05:04.064Z,1683.00
2017-09-30T15:06:25.194Z,2148.00
2017-09-30T15:07:46.566Z,2153.00
2017-09-30T15:09:09.379Z,2211.00
2017-09-30T15:10:30.304Z,2337.00
2017-09-30T15:11:51.150Z,2319.00
2017-09-30T15:13:12.435Z,2497.00
2017-09-30T15:14:34.973Z,2631.00
2017-09-30T15:15:55.931Z,2632.00
2017-09-30T15:17:16.821Z,2577.00
2017-09-30T15:18:40.260Z,2476.00
2017-09-30T15:20:01.890Z,2420.00
2017-09-30T15:21:22.972Z,2489.00
2017-09-30T15:22:43.709Z,2331.00
2017-09-30T15:24:04.929Z,2250.00
2017-09-30T15:25:26.265Z,2132.00
2017-09-30T15:26:47.268Z,2020.00
2017-09-30T15:28:09.746Z,1957.00
2017-09-30T15:29:31.087Z,1776.00
2017-09-30T15:30:52.781Z,1572.00
2017-09-30T15:32:13.812Z,1482.00
2017-09-30T15:33:34.306Z,1614.00
2017-09-30T15:34:55.051Z,1824.00
2017-09-30T15:36:15.873Z,2111.00
2017-09-30T15:37:36.383Z,2290.00
2017-09-30T15:38:57.385Z,2333.00
2017-09-30T15:40:18.729Z,2140.00
2017-09-30T15:41:39.714Z,1822.00
2017-09-30T15:43:00.688Z,1568.00
2017-09-30T15:44:21.405Z,1589.00
2017-09-30T15:45:42.526Z,1698.00
2017-09-30T15:47:03.478Z,1763.00
2017-09-30T15:48:25.265Z,1669.00
2017-09-30T15:49:46.893Z,1539.00
2017-09-30T15:51:09.257Z,1390.00
2017-09-30T15:52:29.853Z,1178.00
2017-09-30T15:53:52.817Z,1044.00
2017-09-30T15:55:13.896Z,921.00
2017-09-30T15:56:35.558Z,851.00
2017-09-30T15:57:56.445Z,972.00
2017-09-30T15:59:18.043Z,1023.00
2017-09-30T16:00:39.552Z,1001.00
2017-09-30T16:02:00.955Z,1033.00
2017-09-30T16:03:21.884Z,1062.00
2017-09-30T16:04:43.229Z,867.00
2017-09-30T16:06:06.106Z,875.00
2017-09-30T16:07:27.304Z,785.00
2017-09-30T16:08:48.217Z,815.00
2017-09-30T16:10:08.893Z,904.00
2017-09-30T16:11:29.854Z,1113.00
2017-09-30T16:12:51.407Z,1091.00
2017-09-30T16:14:12.721Z,1172.00
2017-09-30T16:15:33.310Z,982.00
2017-09-30T16:16:53.987Z,879.00
2017-09-30T16:18:15.300Z,883.00
2017-09-30T16:19:37.232Z,799.00
2017-09-30T16:20:59.762Z,988.00
2017-09-30T16:22:22.691Z,1055.00
2017-09-30T16:23:44.543Z,894.00
2017-09-30T16:25:06.438Z,633.00
2017-09-30T16:26:27.831Z,499.00
2017-09-30T16:27:49.665Z,519.00
2017-09-30T16:29:10.975Z,452.00
2017-09-30T16:30:32.643Z,387.00
2017-09-30T16:31:59.774Z,387.00
2017-09-30T16:33:21.711Z,392.00
2017-09-30T16:34:43.497Z,414.00
2017-09-30T16:36:04.416Z,408.00
2017-09-30T16:37:25.039Z,432.00
2017-09-30T16:38:45.664Z,374.00
2017-09-30T16:40:06.676Z,306.00
2017-09-30T16:41:27.336Z,294.00
2017-09-30T16:42:48.070Z,277.00
2017-09-30T16:44:10.061Z,239.00
2017-09-30T16:45:30.856Z,243.00
2017-09-30T16:46:51.676Z,232.00
2017-09-30T16:48:12.365Z,215.00
2017-09-30T16:49:33.022Z,241.00
2017-09-30T16:50:53.993Z,231.00
2017-09-30T16:52:15.437Z,275.00
2017-09-30T16:53:36.011Z,256.00
2017-09-30T16:54:56.747Z,209.00
2017-09-30T16:56:19.401Z,180.00
2017-09-30T16:57:40.874Z,138.00
2017-09-30T16:59:01.410Z,117.00
2017-09-30T17:00:23.677Z,97.00
2017-09-30T17:01:44.334Z,86.00
2017-09-30T17:03:08.184Z,70.00
2017-09-30T17:04:28.841Z,62.00
2017-09-30T17:05:52.151Z,62.00
2017-09-30T17:07:16.066Z,61.00
2017-09-30T17:08:37.701Z,58.00
2017-09-30T17:09:59.100Z,49.00
2017-09-30T17:11:21.506Z,38.00
2017-09-30T17:12:45.270Z,32.00
2017-09-30T17:14:16.269Z,24.00
2017-09-30T17:15:44.776Z,20.00
2017-09-30T17:17:06.217Z,16.00
2017-09-30T17:18:31.104Z,17.00